Time;durP1;ratioP1;P1;durP2;ratioP2;P2;SDS_P1;SDS_P2;PMS_P1;PMS_P2;Temp;Humidity;BMP_temperature;BMP_pressure;BME280_temperature;BME280_humidity;BME280_pressure;Samples;Min_cycle;Max_cycle;Signal;HPM_P1;HPM_P2
2024/01/06 00:18:27;;;;;;;6.63;1.45;;;;;;;7.15;77.35;99348.34;5492708;23;20139;-67
2024/01/06 00:21:32;;;;;;;4.68;1.10;;;;;;;7.09;78.85;99358.25;4891148;29;20051;-67
2024/01/06 00:24:35;;;;;;;5.72;2.88;;;;;;;7.06;76.18;99356.66;4899310;29;20107;-67
2024/01/06 00:27:38;;;;;;;7.75;1.83;;;;;;;6.94;75.08;99355.59;4881109;29;20184;-67
2024/01/06 00:30:42;;;;;;;6.55;1.73;;;;;;;6.91;75.45;99360.13;4880825;29;20055;-67
2024/01/06 00:33:45;;;;;;;4.50;1.35;;;;;;;7.00;75.15;99364.81;4880344;29;20056;-67
2024/01/06 00:36:49;;;;;;;4.40;1.15;;;;;;;7.19;74.71;99364.59;4881038;29;20100;-67
2024/01/06 00:39:52;;;;;;;3.97;1.10;;;;;;;7.10;76.99;99368.56;4889833;29;20463;-67
2024/01/06 00:42:56;;;;;;;6.53;1.05;;;;;;;7.04;77.88;99371.50;4880146;29;20566;-67
2024/01/06 00:45:59;;;;;;;;;;;;;;;7.11;78.72;99377.19;4881537;29;20056;-67
2024/01/06 00:49:03;;;;;;;5.47;1.38;;;;;;;7.06;78.55;99369.66;4880530;29;20346;-67
2024/01/06 00:52:06;;;;;;;3.17;0.68;;;;;;;7.06;79.43;99368.81;4881202;29;20136;-67
2024/01/06 00:55:10;;;;;;;5.30;1.00;;;;;;;7.06;80.34;99376.63;4880091;29;20076;-67
2024/01/06 00:58:13;;;;;;;5.13;1.08;;;;;;;6.93;81.48;99373.88;4880565;29;20051;-67
2024/01/06 01:01:18;;;;;;;3.20;1.30;;;;;;;7.00;80.13;99375.19;4879972;29;20055;-67
2024/01/06 01:04:21;;;;;;;5.50;1.10;;;;;;;6.96;80.03;99373.69;4880655;29;20063;-67
2024/01/06 01:07:26;;;;;;;;;;;;;;;7.07;79.55;99373.94;4869652;29;20051;-67
2024/01/06 01:10:29;;;;;;;3.20;0.80;;;;;;;7.07;80.23;99373.94;4880095;29;19927;-67
2024/01/06 01:13:33;;;;;;;7.15;1.17;;;;;;;7.05;80.82;99377.53;4881272;29;20048;-67
2024/01/06 01:16:36;;;;;;;;;;;;;;;6.99;80.28;99384.75;4899859;29;20083;-67
2024/01/06 01:19:39;;;;;;;4.13;0.85;;;;;;;7.00;81.97;99385.59;4898582;29;20364;-67
2024/01/06 01:22:42;;;;;;;;;;;;;;;7.04;82.21;99387.09;4898997;29;20055;-67
2024/01/06 01:25:45;;;;;;;3.93;1.30;;;;;;;7.09;82.52;99385.09;4898985;29;20530;-67
2024/01/06 01:28:51;;;;;;;6.13;1.52;;;;;;;6.92;79.79;99395.56;4897560;29;20052;-67
2024/01/06 01:31:56;;;;;;;3.80;1.08;;;;;;;6.75;82.68;99399.94;4893196;29;20697;-67
2024/01/06 01:35:01;;;;;;;3.15;0.73;;;;;;;6.84;82.22;99408.16;4855355;29;20476;-69
2024/01/06 01:38:07;;;;;;;4.63;1.27;;;;;;;7.01;79.50;99409.81;4869918;29;20192;-69
2024/01/06 01:41:12;;;;;;;3.17;0.85;;;;;;;7.09;79.67;99413.69;4875984;29;20068;-68
2024/01/06 01:44:18;;;;;;;3.92;0.77;;;;;;;7.02;80.94;99419.28;4860506;29;20534;-68
2024/01/06 01:47:22;;;;;;;1.98;0.52;;;;;;;7.05;81.52;99425.19;4860944;29;20523;-68
2024/01/06 01:50:27;;;;;;;7.93;1.10;;;;;;;7.06;82.49;99426.00;4861842;29;20088;-68
2024/01/06 01:53:31;;;;;;;2.88;0.60;;;;;;;6.83;83.38;99429.84;4898847;29;20055;-69
2024/01/06 01:56:36;;;;;;;5.10;0.90;;;;;;;6.87;82.91;99431.38;4897885;29;20052;-68
2024/01/06 01:59:39;;;;;;;4.90;0.82;;;;;;;6.92;82.38;99430.22;4898579;29;20073;-68
2024/01/06 02:02:42;;;;;;;7.03;0.80;;;;;;;6.93;83.54;99428.44;4898073;29;20111;-68
2024/01/06 02:05:45;;;;;;;;;;;;;;;6.77;83.87;99443.19;4898980;29;20080;-68
2024/01/06 02:08:49;;;;;;;4.55;0.90;;;;;;;6.89;83.16;99438.16;4896986;29;19970;-68
2024/01/06 02:11:52;;;;;;;;;;;;;;;6.94;83.17;99440.50;4887457;29;20169;-69
2024/01/06 02:14:55;;;;;;;4.20;0.80;;;;;;;7.01;82.59;99441.84;4898204;29;20367;-68
2024/01/06 02:17:59;;;;;;;5.95;1.73;;;;;;;6.89;83.13;99443.38;4897924;29;20050;-68
2024/01/06 02:21:02;;;;;;;5.93;0.90;;;;;;;6.98;83.85;99442.00;4898291;29;20059;-68
2024/01/06 02:24:05;;;;;;;4.50;0.90;;;;;;;6.93;83.91;99447.47;4897586;29;20532;-68
2024/01/06 02:27:09;;;;;;;;;;;;;;;6.94;84.06;99454.34;4897877;29;20070;-68
2024/01/06 02:30:12;;;;;;;4.53;1.00;;;;;;;6.86;84.93;99453.06;4879716;29;19926;-68
2024/01/06 02:33:15;;;;;;;5.38;0.98;;;;;;;6.83;84.37;99455.81;4878410;29;20052;-68
2024/01/06 02:36:18;;;;;;;;;;;;;;;6.86;85.01;99463.47;4878265;29;20114;-68
2024/01/06 02:39:23;;;;;;;4.88;1.33;;;;;;;6.84;83.88;99471.34;4879286;29;19922;-68
2024/01/06 02:42:26;;;;;;;6.80;1.05;;;;;;;6.82;84.96;99470.59;4878561;29;20108;-68
2024/01/06 02:45:30;;;;;;;2.92;0.68;;;;;;;6.84;84.30;99473.13;4872562;29;20182;-68
2024/01/06 02:48:33;;;;;;;;;;;;;;;6.79;84.53;99477.72;4860800;29;20065;-68
2024/01/06 02:51:36;;;;;;;2.13;0.70;;;;;;;6.89;83.39;99481.47;4860246;29;20095;-68
2024/01/06 02:54:39;;;;;;;;;;;;;;;6.95;83.92;99479.38;4860777;29;20055;-68
2024/01/06 02:57:43;;;;;;;3.45;0.98;;;;;;;6.85;82.12;99483.41;4860239;29;20007;-68
2024/01/06 03:00:46;;;;;;;;;;;;;;;6.85;80.81;99490.38;4861032;29;20051;-68
2024/01/06 03:03:49;;;;;;;3.45;0.82;;;;;;;6.84;78.78;99491.31;4896739;29;19922;-69
2024/01/06 03:06:53;;;;;;;;;;;;;;;6.83;78.32;99498.25;4896361;29;20087;-68
2024/01/06 03:09:56;;;;;;;;;;;;;;;6.88;77.74;99500.59;4883990;29;20020;-68
2024/01/06 03:13:00;;;;;;;4.75;1.00;;;;;;;6.91;77.74;99493.47;4879586;29;19923;-68
2024/01/06 03:16:05;;;;;;;7.70;1.65;;;;;;;7.00;77.99;99497.34;4889659;29;20581;-68
2024/01/06 03:24:27;;;;;;;4.93;1.20;;;;;;;7.02;78.33;99492.91;4953919;29;20053;-68
2024/01/06 03:27:30;;;;;;;5.97;1.45;;;;;;;6.90;77.84;99490.97;4931375;29;20110;-69
2024/01/06 03:30:35;;;;;;;6.35;1.73;;;;;;;7.01;77.48;99491.22;4942402;29;20515;-68
2024/01/06 03:33:38;;;;;;;4.78;1.30;;;;;;;7.06;77.61;99488.41;4954059;28;20054;-68
2024/01/06 03:36:41;;;;;;;;;;;;;;;7.14;77.88;99492.22;4953829;28;20070;-68
2024/01/06 03:39:44;;;;;;;4.25;1.25;;;;;;;7.10;80.65;99492.50;4939944;28;20299;-68
2024/01/06 03:42:47;;;;;;;4.97;1.20;;;;;;;7.10;81.41;99492.50;4951561;28;20054;-68
2024/01/06 03:45:51;;;;;;;4.63;0.90;;;;;;;7.17;81.19;99497.25;4935548;28;20054;-69
2024/01/06 03:48:54;;;;;;;5.03;1.15;;;;;;;7.11;81.89;99504.56;4936070;28;20516;-68
2024/01/06 03:51:58;;;;;;;4.82;1.08;;;;;;;6.96;82.43;99499.28;4957639;28;20049;-69
2024/01/06 03:55:02;;;;;;;2.00;0.65;;;;;;;7.06;82.65;99511.78;4946276;28;20139;-69
2024/01/06 03:58:06;;;;;;;5.85;0.93;;;;;;;7.03;83.44;99520.59;4957711;29;20046;-68
2024/01/06 04:01:10;;;;;;;6.10;1.42;;;;;;;6.98;81.73;99517.38;4957456;29;20511;-68
2024/01/06 04:04:13;;;;;;;3.67;1.20;;;;;;;6.73;81.10;99529.09;4957547;28;20046;-68
2024/01/06 04:07:16;;;;;;;6.80;1.20;;;;;;;6.74;80.09;99525.56;4945265;29;20046;-69
2024/01/06 04:10:19;;;;;;;8.80;1.83;;;;;;;6.73;79.83;99525.63;4945920;29;20050;-68
2024/01/06 04:13:24;;;;;;;7.30;2.05;;;;;;;6.72;80.32;99526.56;4945222;29;20054;-68
2024/01/06 04:16:30;;;;;;;3.92;1.20;;;;;;;6.49;82.46;99519.97;4956303;28;20058;-68
2024/01/06 04:19:34;;;;;;;3.30;1.00;;;;;;;6.38;83.70;99527.44;4947728;28;20047;-68
2024/01/06 04:22:37;;;;;;;;;;;;;;;6.31;84.38;99528.69;4938812;29;20057;-68
2024/01/06 04:25:40;;;;;;;5.65;1.20;;;;;;;6.36;85.43;99526.72;4950667;28;19960;-68
2024/01/06 04:28:43;;;;;;;3.65;1.13;;;;;;;6.39;85.36;99519.59;4964191;28;20199;-68
2024/01/06 04:31:46;;;;;;;;;;;;;;;6.41;84.99;99524.69;4974227;28;20423;-68
2024/01/06 04:34:49;;;;;;;5.80;1.88;;;;;;;6.42;86.43;99537.63;4957875;28;19969;-68
2024/01/06 04:37:53;;;;;;;3.80;0.90;;;;;;;6.50;87.78;99537.22;4957249;28;20050;-68
2024/01/06 04:40:57;;;;;;;3.45;0.98;;;;;;;6.50;88.81;99537.22;4961380;28;20134;-68
2024/01/06 04:44:00;;;;;;;4.97;1.48;;;;;;;6.41;90.22;99529.88;4944483;28;20457;-69
2024/01/06 04:47:04;;;;;;;4.90;1.10;;;;;;;6.52;88.60;99530.19;4944981;29;20081;-68
2024/01/06 04:50:07;;;;;;;3.05;1.15;;;;;;;6.44;88.94;99532.34;4956531;28;20046;-69
2024/01/06 04:53:10;;;;;;;3.95;1.00;;;;;;;6.48;88.99;99528.69;4969698;28;20094;-69
2024/01/06 04:56:13;;;;;;;5.50;1.30;;;;;;;6.54;88.54;99530.97;4975834;28;20116;-68
2024/01/06 04:59:17;;;;;;;4.82;1.08;;;;;;;6.47;88.85;99526.97;4954752;28;20116;-69
2024/01/06 05:02:20;;;;;;;;;;;;;;;6.38;89.56;99528.31;4957945;28;20094;-68
2024/01/06 05:05:24;;;;;;;3.42;1.00;;;;;;;6.39;89.61;99531.75;4955080;28;20005;-68
2024/01/06 05:08:30;;;;;;;4.45;1.00;;;;;;;6.45;89.36;99529.66;4975734;28;20049;-68
2024/01/06 05:11:33;;;;;;;2.38;0.90;;;;;;;6.48;89.90;99531.28;4952815;28;20073;-68
2024/01/06 05:14:36;;;;;;;;;;;;;;;6.52;89.50;99536.22;4975976;28;20046;-69
2024/01/06 05:17:39;;;;;;;4.47;3.15;;;;;;;6.48;89.83;99531.28;4963548;28;20288;-68
2024/01/06 05:20:43;;;;;;;13.50;8.30;;;;;;;6.42;90.73;99529.81;4963299;28;20094;-69
2024/01/06 05:23:46;;;;;;;;;;;;;;;6.48;91.12;99546.84;4974053;28;20113;-68
2024/01/06 05:31:58;;;;;;;5.18;1.17;;;;;;;6.44;91.00;99555.69;4966630;28;20106;-69
2024/01/06 05:35:01;;;;;;;;;;;;;;;6.44;90.63;99559.13;4952332;28;20105;-68
2024/01/06 05:38:05;;;;;;;6.13;1.55;;;;;;;6.43;90.46;99552.28;4950287;28;19921;-68
2024/01/06 05:41:08;;;;;;;;;;;;;;;6.46;90.24;99553.88;4975072;28;20171;-68
2024/01/06 05:44:11;;;;;;;5.00;1.60;;;;;;;6.46;90.59;99552.13;4975002;28;19937;-69
2024/01/06 05:47:14;;;;;;;5.32;0.98;;;;;;;6.38;91.02;99561.19;4974005;28;20065;-69
2024/01/06 05:50:18;;;;;;;4.82;0.80;;;;;;;6.33;91.83;99565.81;4974193;28;20105;-68
2024/01/06 05:53:21;;;;;;;2.33;1.08;;;;;;;6.43;91.13;99567.00;4973971;28;20046;-68
2024/01/06 05:56:25;;;;;;;;;;;;;;;6.46;91.49;99566.84;4962721;28;20053;-68
2024/01/06 05:59:28;;;;;;;3.65;0.95;;;;;;;6.41;91.86;99574.03;4974080;28;20053;-68
2024/01/06 06:02:32;;;;;;;2.60;0.90;;;;;;;6.41;92.09;99576.63;4963338;28;20089;-68
2024/01/06 06:05:35;;;;;;;2.95;0.73;;;;;;;6.41;91.84;99579.22;4975248;28;20137;-68
2024/01/06 06:08:42;;;;;;;1.58;0.52;;;;;;;6.28;92.42;99585.03;4974876;28;20049;-68
2024/01/06 06:11:45;;;;;;;4.38;1.85;;;;;;;6.42;92.49;99586.13;4968221;28;20105;-68
2024/01/06 06:14:48;;;;;;;3.08;0.93;;;;;;;6.45;92.08;99596.34;4951883;28;20110;-68
2024/01/06 06:17:51;;;;;;;7.25;2.30;;;;;;;6.50;92.03;99599.53;4961912;28;20050;-68
2024/01/06 06:20:55;;;;;;;;;;;;;;;6.50;91.51;99599.53;4966303;28;20094;-69
2024/01/06 06:23:58;;;;;;;3.60;0.80;;;;;;;6.39;92.30;99600.09;4954826;29;19925;-69
2024/01/06 06:27:01;;;;;;;;;;;;;;;6.22;93.27;99606.13;4943283;29;20046;-69
2024/01/06 06:30:05;;;;;;;6.70;0.90;;;;;;;6.23;92.64;99612.16;4961959;28;19921;-68
2024/01/06 06:33:09;;;;;;;2.25;0.70;;;;;;;6.25;92.59;99615.50;4974101;28;20129;-68
2024/01/06 06:36:12;;;;;;;3.60;1.02;;;;;;;6.35;92.18;99627.13;4951145;28;20093;-68
2024/01/06 06:39:16;;;;;;;;;;;;;;;6.39;91.91;99622.63;4974494;28;20045;-69
2024/01/06 06:42:19;;;;;;;5.32;1.02;;;;;;;6.47;91.54;99615.28;4961716;28;19921;-69
2024/01/06 06:45:22;;;;;;;2.10;0.73;;;;;;;6.40;92.32;99627.72;4953744;28;20046;-69
2024/01/06 06:48:26;;;;;;;5.93;1.17;;;;;;;6.36;92.15;99631.41;4954000;28;20082;-67
2024/01/06 06:55:43;;;;;;;2.90;0.77;;;;;;;6.26;93.43;99638.78;4940955;28;20464;-68
2024/01/06 06:58:46;;;;;;;3.17;0.60;;;;;;;6.24;92.30;99638.03;4953152;28;20062;-71
2024/01/06 07:01:50;;;;;;;5.13;1.48;;;;;;;6.22;92.66;99641.59;4941163;29;20046;-77
2024/01/06 07:04:53;;;;;;;;;;;;;;;6.26;92.66;99649.19;4941591;29;20462;-70
2024/01/06 07:07:56;;;;;;;6.47;2.33;;;;;;;6.38;91.90;99649.47;4940897;29;19989;-68
2024/01/06 07:11:00;;;;;;;3.55;1.20;;;;;;;6.27;91.71;99644.81;4943031;28;20046;-68
2024/01/06 07:14:03;;;;;;;;;;;;;;;6.33;91.34;99641.94;4955147;28;20564;-68
2024/01/06 07:17:06;;;;;;;4.30;1.58;;;;;;;6.41;91.34;99657.13;4954677;28;19921;-68
2024/01/06 07:20:09;;;;;;;;;;;;;;;6.42;91.29;99656.22;4955099;28;20182;-67
2024/01/06 07:23:12;;;;;;;4.05;1.52;;;;;;;6.39;91.69;99662.41;4943025;28;19945;-68
2024/01/06 07:26:15;;;;;;;;;;;;;;;6.37;92.50;99661.63;4958956;28;20535;-69
2024/01/06 07:29:19;;;;;;;2.50;0.98;;;;;;;6.37;93.18;99671.19;4958133;28;19926;-68
2024/01/06 07:32:23;;;;;;;;;;;;;;;6.35;93.15;99679.06;4957876;28;20101;-68
2024/01/06 07:35:26;;;;;;;2.35;0.82;;;;;;;6.33;93.30;99685.22;4956873;28;20293;-68
2024/01/06 07:38:30;;;;;;;4.20;1.00;;;;;;;6.29;93.58;99684.53;4946246;29;20050;-68
2024/01/06 07:41:34;;;;;;;5.13;2.25;;;;;;;6.19;94.45;99689.34;4958060;28;20472;-68
2024/01/06 07:44:37;;;;;;;3.45;1.70;;;;;;;6.29;94.30;99694.94;4946017;28;20160;-68
2024/01/06 07:47:41;;;;;;;3.40;1.50;;;;;;;6.42;94.03;99697.78;4957950;28;20058;-68
2024/01/06 07:50:46;;;;;;;6.03;1.48;;;;;;;6.48;93.37;99697.47;4946275;28;20053;-68
2024/01/06 07:53:50;;;;;;;;;;;;;;;6.47;93.28;99712.19;4958202;28;20072;-67
2024/01/06 07:56:57;;;;;;;4.10;1.52;;;;;;;6.41;93.50;99706.47;4958221;28;19956;-67
2024/01/06 08:00:02;;;;;;;4.25;1.40;;;;;;;6.44;93.43;99711.50;4935080;28;20042;-67
2024/01/06 08:03:16;;;;;;;4.38;1.25;;;;;;;6.44;93.08;99714.09;4947401;28;20178;-68
2024/01/06 08:06:20;;;;;;;2.67;0.80;;;;;;;6.47;93.17;99719.16;4945552;28;20053;-69
2024/01/06 08:09:25;;;;;;;2.65;0.90;;;;;;;6.45;93.56;99721.84;4945618;29;20051;-69
2024/01/06 08:12:28;;;;;;;;;;;;;;;6.52;93.56;99724.97;4957729;29;20461;-69
2024/01/06 08:15:32;;;;;;;9.30;3.53;;;;;;;6.49;93.79;99728.56;4957340;29;19961;-68
2024/01/06 08:18:35;;;;;;;19.15;9.43;;;;;;;6.57;92.99;99729.94;4945318;29;20051;-69
2024/01/06 08:21:39;;;;;;;9.82;4.35;;;;;;;6.64;92.83;99736.53;4957553;29;20054;-68
2024/01/06 08:24:42;;;;;;;7.00;2.90;;;;;;;6.53;93.98;99737.03;4957489;29;20057;-71
2024/01/06 08:27:45;;;;;;;6.20;2.30;;;;;;;6.56;94.04;99747.28;4956788;29;20050;-71
2024/01/06 08:30:49;;;;;;;5.47;1.33;;;;;;;6.57;94.66;99745.53;4957573;29;20567;-69
2024/01/06 08:33:52;;;;;;;6.05;2.38;;;;;;;6.69;93.23;99750.97;4956920;29;20568;-72
2024/01/06 08:36:56;;;;;;;;;;;;;;;6.67;93.03;99763.22;4957101;28;20412;-73
2024/01/06 08:39:59;;;;;;;3.92;0.85;;;;;;;6.73;92.79;99765.50;4956934;28;19921;-69
2024/01/06 08:43:03;;;;;;;4.80;1.00;;;;;;;6.68;92.52;99762.28;4945278;29;20126;-69
2024/01/06 08:46:07;;;;;;;2.80;0.70;;;;;;;6.62;93.45;99770.38;4956593;29;20043;-69
2024/01/06 08:49:10;;;;;;;4.38;0.90;;;;;;;6.65;93.51;99780.63;4956728;29;20405;-69
2024/01/06 08:52:13;;;;;;;3.22;0.80;;;;;;;6.78;92.99;99775.66;4957099;29;20200;-69
2024/01/06 08:55:16;;;;;;;4.28;0.80;;;;;;;6.70;92.64;99786.44;4933862;29;20089;-69
2024/01/06 08:58:20;;;;;;;;;;;;;;;6.79;91.93;99782.53;4934678;29;20063;-69
2024/01/06 09:01:23;;;;;;;5.45;3.10;;;;;;;6.71;92.75;99788.13;4943409;28;19950;-69
2024/01/06 09:04:27;;;;;;;3.67;2.20;;;;;;;6.85;92.29;99789.19;4943205;28;20083;-70
2024/01/06 09:07:31;;;;;;;3.72;1.60;;;;;;;6.89;92.43;99795.91;4946942;28;20486;-68
2024/01/06 09:10:34;;;;;;;;;;;;;;;6.94;91.82;99793.94;4953806;28;20083;-67
2024/01/06 09:13:41;;;;;;;10.15;5.75;;;;;;;6.86;91.91;99806.47;4936767;29;19922;-70
2024/01/06 09:16:44;;;;;;;13.20;8.07;;;;;;;6.89;91.18;99808.91;4932264;29;20122;-67
2024/01/06 09:19:48;;;;;;;9.45;7.25;;;;;;;6.85;91.67;99812.59;4931463;29;20262;-68
2024/01/06 09:22:51;;;;;;;21.77;14.98;;;;;;;6.51;93.49;99812.44;4930714;29;20430;-69
2024/01/06 09:25:55;;;;;;;7.45;6.07;;;;;;;6.51;93.74;99815.03;4920197;29;20106;-67
2024/01/06 09:28:58;;;;;;;11.93;5.45;;;;;;;6.40;94.94;99816.44;4931743;29;20118;-67
2024/01/06 09:32:02;;;;;;;8.68;5.35;;;;;;;6.58;94.14;99820.78;4921335;29;20070;-67
2024/01/06 09:35:05;;;;;;;5.68;4.05;;;;;;;6.53;94.90;99827.94;4922026;29;20110;-67
2024/01/06 09:38:08;;;;;;;9.05;5.75;;;;;;;6.41;96.16;99846.69;4935767;29;20102;-67
2024/01/06 09:41:12;;;;;;;;;;;;;;;6.44;96.02;99837.00;4935957;29;20083;-67
2024/01/06 09:44:15;;;;;;;6.32;3.10;;;;;;;6.38;97.00;99841.63;4935643;29;19921;-67
2024/01/06 09:47:18;;;;;;;6.47;3.70;;;;;;;6.47;96.49;99839.44;4934287;29;20169;-67
2024/01/06 09:50:21;;;;;;;5.60;3.33;;;;;;;6.45;97.04;99840.47;4923795;29;20062;-67
2024/01/06 09:53:33;;;;;;;6.50;3.80;;;;;;;6.27;98.39;99848.16;4923385;29;20110;-67
2024/01/06 09:56:36;;;;;;;6.53;3.95;;;;;;;6.47;98.38;99851.59;4935429;29;20058;-68
2024/01/06 09:59:42;;;;;;;5.35;3.45;;;;;;;6.62;97.35;99843.09;4935023;29;20461;-68
2024/01/06 10:03:20;;;;;;;5.13;3.05;;;;;;;6.71;97.06;99847.88;4901969;29;20058;-67
2024/01/06 10:06:24;;;;;;;5.47;2.75;;;;;;;6.72;96.65;99846.94;4923289;29;20532;-67
2024/01/06 10:09:28;;;;;;;9.65;5.30;;;;;;;6.71;96.20;99857.44;4934081;29;20473;-67
2024/01/06 10:12:31;;;;;;;11.52;8.02;;;;;;;6.65;97.42;99858.53;4935097;29;20576;-67
2024/01/06 10:15:36;;;;;;;11.55;5.75;;;;;;;6.62;97.72;99858.69;4912199;29;20154;-67
2024/01/06 10:18:39;;;;;;;5.55;3.58;;;;;;;6.78;97.18;99863.16;4922973;29;20086;-67
2024/01/06 10:21:43;;;;;;;;;;;;;;;6.65;97.71;99870.69;4935372;29;20197;-67
2024/01/06 10:24:46;;;;;;;;;;;;;;;6.71;98.39;99854.81;4935173;29;19956;-67
2024/01/06 10:27:49;;;;;;;60.58;45.13;;;;;;;6.52;98.78;99865.22;4934451;29;19932;-67
2024/01/06 10:30:54;;;;;;;46.58;29.90;;;;;;;6.60;98.20;99863.09;4934842;29;20441;-67
2024/01/06 10:33:57;;;;;;;57.03;35.47;;;;;;;6.47;98.30;99865.41;4934656;29;20051;-68
2024/01/06 10:37:01;;;;;;;;;;;;;;;6.44;98.27;99872.50;4937750;28;20121;-67
2024/01/06 10:40:12;;;;;;;38.05;21.10;;;;;;;6.57;98.17;99873.63;4934326;29;20280;-68
2024/01/06 10:43:16;;;;;;;89.25;47.22;;;;;;;6.76;97.30;99878.81;4959118;28;20122;-67
2024/01/06 10:46:19;;;;;;;68.30;37.88;;;;;;;6.83;96.48;99884.56;4972386;28;20139;-67
2024/01/06 10:49:23;;;;;;;;;;;;;;;6.69;96.83;99878.25;4952159;28;20054;-67
2024/01/06 10:52:28;;;;;;;25.45;13.55;;;;;;;6.75;96.96;99880.59;4940654;28;19930;-67
2024/01/06 10:55:32;;;;;;;28.35;16.02;;;;;;;6.84;96.62;99886.28;4966372;28;20590;-67
2024/01/06 10:58:42;;;;;;;3.88;2.20;;;;;;;6.87;96.82;99886.13;4959811;28;20058;-67
2024/01/06 11:01:47;;;;;;;3.38;1.63;;;;;;;6.87;96.98;99894.75;4972438;28;20192;-67
2024/01/06 11:04:50;;;;;;;16.95;14.95;;;;;;;6.80;93.67;99887.34;4972231;28;20467;-68
2024/01/06 11:07:59;;;;;;;16.02;13.85;;;;;;;6.95;93.10;99881.41;4972325;28;20065;-67
2024/01/06 11:11:04;;;;;;;17.02;14.45;;;;;;;6.88;93.79;99890.41;4955898;28;20066;-67
2024/01/06 11:14:31;;;;;;;22.40;14.10;;;;;;;6.95;93.49;99887.44;4953001;28;20054;-67
2024/01/06 11:17:58;;;;;;;14.40;12.90;;;;;;;7.03;93.40;99889.69;4933405;29;20474;-67
2024/01/06 11:21:27;;;;;;;15.30;12.93;;;;;;;6.86;93.13;99887.03;4944591;28;20171;-68
2024/01/06 11:29:10;;;;;;;14.75;12.30;;;;;;;6.91;89.97;99885.06;4922125;29;20054;-71
2024/01/06 11:32:19;;;;;;;14.77;12.20;;;;;;;6.92;90.96;99886.75;4933260;29;20086;-68
2024/01/06 11:35:23;;;;;;;33.50;14.15;;;;;;;6.83;91.86;99890.63;4934144;29;20143;-67
2024/01/06 11:38:26;;;;;;;16.73;12.32;;;;;;;7.04;91.34;99885.31;4934229;29;20042;-69
2024/01/06 11:41:52;;;;;;;14.43;11.30;;;;;;;7.03;91.26;99883.66;4922439;29;20453;-71
2024/01/06 11:45:01;;;;;;;14.52;12.10;;;;;;;7.03;91.23;99887.09;4933966;29;20075;-70
2024/01/06 11:48:08;;;;;;;14.60;11.63;;;;;;;6.98;91.31;99881.25;4933872;29;20051;-70
2024/01/06 11:51:12;;;;;;;13.93;11.55;;;;;;;6.45;90.36;99871.63;4933809;29;20047;-70
2024/01/06 11:54:16;;;;;;;13.20;10.77;;;;;;;6.75;89.96;99875.38;4934035;29;20042;-70
2024/01/06 11:57:19;;;;;;;13.40;10.85;;;;;;;6.82;89.89;99878.53;4934056;29;20398;-70
2024/01/06 12:00:22;;;;;;;;;;;;;;;6.74;89.37;99881.50;4933631;29;20488;-70
2024/01/06 12:03:26;;;;;;;12.88;9.80;;;;;;;6.83;89.05;99882.84;4922061;29;19922;-70
2024/01/06 12:06:30;;;;;;;14.02;9.32;;;;;;;6.99;88.90;99880.34;4921940;29;20138;-70
2024/01/06 12:09:34;;;;;;;13.18;10.63;;;;;;;7.06;88.38;99883.50;4922339;29;20051;-70
2024/01/06 12:12:37;;;;;;;15.88;11.00;;;;;;;7.12;87.94;99883.22;4914867;29;20078;-70
2024/01/06 12:15:41;;;;;;;;;;;;;;;7.15;88.50;99886.50;4925962;29;20043;-70
2024/01/06 12:18:44;;;;;;;14.60;10.55;;;;;;;7.13;88.74;99880.53;4925509;29;19926;-70
2024/01/06 12:21:47;;;;;;;;;;;;;;;7.22;88.01;99885.28;4937891;29;20180;-71
2024/01/06 12:24:50;;;;;;;13.80;9.97;;;;;;;7.18;87.99;99888.94;4925438;29;20014;-71
2024/01/06 12:27:53;;;;;;;14.43;9.18;;;;;;;7.21;87.82;99895.72;4937145;29;20130;-73
2024/01/06 12:30:59;;;;;;;13.00;10.07;;;;;;;7.21;88.64;99887.94;4925383;29;20114;-71
2024/01/06 12:34:04;;;;;;;11.07;9.15;;;;;;;7.23;89.89;99897.34;4936985;29;20606;-70
2024/01/06 12:37:07;;;;;;;13.20;10.05;;;;;;;7.20;90.22;99894.91;4925281;29;20074;-71
2024/01/06 12:40:16;;;;;;;13.68;10.20;;;;;;;7.21;90.42;99898.34;4936966;29;20082;-73
2024/01/06 12:43:20;;;;;;;12.77;9.63;;;;;;;7.05;91.84;99892.19;4937009;29;20058;-74
2024/01/06 12:46:24;;;;;;;;;;;;;;;7.08;91.22;99895.47;4925465;29;20071;-72
2024/01/06 12:49:27;;;;;;;10.48;9.15;;;;;;;7.25;91.03;99893.84;4936661;29;19977;-71
2024/01/06 12:52:30;;;;;;;;;;;;;;;7.28;90.92;99901.50;4936911;29;20051;-70
2024/01/06 12:55:33;;;;;;;11.65;8.90;;;;;;;7.30;91.98;99899.66;4936801;29;20432;-71
2024/01/06 12:58:37;;;;;;;;;;;;;;;7.26;91.83;99901.56;4937179;29;20090;-70
2024/01/06 13:01:42;;;;;;;10.77;8.43;;;;;;;7.25;91.74;99899.06;4925028;29;19921;-70
2024/01/06 13:04:45;;;;;;;13.68;9.00;;;;;;;7.25;91.21;99907.69;4936738;29;20517;-70
2024/01/06 13:07:49;;;;;;;9.02;7.85;;;;;;;7.16;90.91;99914.16;4924557;29;20446;-70
2024/01/06 13:10:53;;;;;;;;;;;;;;;6.88;86.68;99906.00;4937191;29;20054;-70
2024/01/06 13:13:59;;;;;;;6.97;5.97;;;;;;;6.95;87.27;99909.97;4942439;28;19977;-71
2024/01/06 13:17:05;;;;;;;7.95;5.38;;;;;;;6.53;86.44;99911.06;4929183;29;20054;-71
2024/01/06 13:20:09;;;;;;;8.35;6.10;;;;;;;6.83;86.51;99913.16;4928246;29;20117;-71
2024/01/06 13:23:13;;;;;;;8.15;5.43;;;;;;;6.93;86.20;99920.47;4931700;29;20102;-73
2024/01/06 13:26:16;;;;;;;8.70;5.78;;;;;;;6.96;86.32;99930.72;4935004;29;20063;-71
2024/01/06 13:29:19;;;;;;;;;;;;;;;6.90;88.78;99919.78;4928797;29;20114;-73
2024/01/06 13:32:22;;;;;;;8.38;6.72;;;;;;;6.83;89.58;99931.34;4935766;29;19922;-71
2024/01/06 13:35:26;;;;;;;;;;;;;;;6.58;85.12;99937.69;4936386;29;20042;-71
2024/01/06 13:38:29;;;;;;;;;;;;;;;6.48;83.13;99939.84;4937131;28;20398;-71
2024/01/06 13:41:32;;;;;;;3.95;2.65;;;;;;;6.34;82.11;99942.19;4955228;28;20388;-71
2024/01/06 13:44:35;;;;;;;;;;;;;;;6.47;84.46;99948.53;4943452;28;20054;-70
2024/01/06 13:47:44;;;;;;;5.38;3.42;;;;;;;6.58;84.86;99950.66;4955251;28;19926;-70
2024/01/06 13:50:47;;;;;;;5.13;3.45;;;;;;;6.66;81.42;99948.53;4954629;28;20062;-70
2024/01/06 13:53:50;;;;;;;;;;;;;;;6.56;81.07;99949.88;4955157;28;20065;-69
2024/01/06 13:56:53;;;;;;;4.38;2.60;;;;;;;6.65;82.15;99954.66;4954774;28;19921;-71
2024/01/06 13:59:57;;;;;;;;;;;;;;;6.63;82.48;99953.88;4951539;28;20521;-70
2024/01/06 14:03:01;;;;;;;3.38;2.42;;;;;;;6.81;82.01;99966.97;4937856;29;19970;-71
2024/01/06 14:06:06;;;;;;;3.70;2.03;;;;;;;6.64;79.93;99962.53;4951000;28;20102;-71
2024/01/06 14:09:11;;;;;;;3.95;2.33;;;;;;;6.81;80.26;99966.97;4937160;29;20050;-70
2024/01/06 14:12:19;;;;;;;3.50;2.00;;;;;;;6.78;79.94;99972.31;4932317;29;20058;-71
2024/01/06 14:15:21;;;;;;;3.47;2.28;;;;;;;6.53;79.41;99969.03;4923071;29;20047;-70
2024/01/06 14:18:27;;;;;;;3.90;2.80;;;;;;;6.60;79.70;99980.00;4923313;29;20051;-71
2024/01/06 14:21:31;;;;;;;4.72;3.88;;;;;;;6.44;79.01;99979.81;4935009;29;20095;-67
2024/01/06 14:24:36;;;;;;;4.38;3.08;;;;;;;6.53;78.80;99983.78;4935440;29;20051;-73
2024/01/06 14:27:43;;;;;;;3.75;2.78;;;;;;;6.49;78.98;99987.44;4939680;29;20074;-70
2024/01/06 14:30:50;;;;;;;5.32;3.95;;;;;;;6.56;80.51;99995.78;4953534;28;20054;-70
2024/01/06 14:33:55;;;;;;;;;;;;;;;6.48;79.37;100004.78;4952218;28;20079;-69
2024/01/06 14:36:58;;;;;;;6.57;4.55;;;;;;;6.37;80.03;100012.19;4943005;28;20415;-70
2024/01/06 14:40:05;;;;;;;6.88;6.10;;;;;;;5.91;81.82;100011.50;4942620;28;20050;-70
2024/01/06 14:43:10;;;;;;;7.15;6.32;;;;;;;5.77;81.93;100009.44;4958858;28;20086;-69
2024/01/06 14:46:21;;;;;;;7.10;5.80;;;;;;;6.11;81.58;100005.50;4930018;28;20071;-69
2024/01/06 14:49:52;;;;;;;5.97;5.03;;;;;;;6.22;81.10;100015.41;4941769;28;20079;-73
2024/01/06 14:52:55;;;;;;;;;;;;;;;6.27;81.53;100016.91;4949025;28;20090;-72
2024/01/06 14:56:00;;;;;;;6.03;4.57;;;;;;;6.61;80.73;100028.47;4937443;29;19922;-69
2024/01/06 14:59:08;;;;;;;6.55;5.00;;;;;;;6.13;80.29;100037.44;4944697;28;20062;-69
2024/01/06 15:02:13;;;;;;;7.65;5.22;;;;;;;6.08;82.17;100044.56;4949060;28;20058;-69
2024/01/06 15:05:16;;;;;;;6.63;4.40;;;;;;;5.85;82.42;100053.25;4945345;28;20552;-70
2024/01/06 15:08:19;;;;;;;;;;;;;;;5.92;81.50;100048.66;4940601;28;20046;-71
2024/01/06 15:11:22;;;;;;;6.45;4.47;;;;;;;6.16;81.06;100047.69;4934597;29;19926;-70
2024/01/06 15:14:26;;;;;;;4.40;3.70;;;;;;;6.51;80.69;100047.97;4934710;29;20046;-70
2024/01/06 15:17:30;;;;;;;5.10;4.20;;;;;;;6.77;80.05;100043.38;4946983;28;20041;-71
2024/01/06 15:20:36;;;;;;;7.53;6.00;;;;;;;6.38;80.26;100049.38;4928439;29;20117;-70
2024/01/06 15:23:39;;;;;;;7.90;6.60;;;;;;;6.17;81.19;100044.19;4951776;28;20429;-71
2024/01/06 15:26:43;;;;;;;;;;;;;;;5.95;82.20;100057.19;4952899;28;20046;-70
2024/01/06 15:29:46;;;;;;;;;;;;;;;6.10;81.89;100049.72;4939859;29;19989;-72